Terminal Aerodrome Forecast
Issued by NWS Lake Charles, LA

Home | Current Version | Previous Version | Text Only | Print | Product List | Glossary On
Versions: 1 2 3 4 5 6 7 8 9 10 11 12 13 14 15 16 17 18 19 20 21 22 23 24 25 26 27
854
FTUS44 KLCH 201120
TAFBPT
TAF
KBPT 201120Z 2012/2112 14009KT P6SM OVC010
      TEMPO 2012/2016 4SM BR OVC008
     FM201600 13015G23KT P6SM VCSH OVC015
     FM202000 13010KT 3SM TSRA OVC015CB
     FM210200 VRB05KT 3SM SHRA VCTS OVC008CB
     FM210800 VRB03KT 3SM BR OVC008=

USA.gov is the U.S. government's official web portal to all federal, state and local government web resources and services.